Time;durP1;ratioP1;P1;durP2;ratioP2;P2;SDS_P1;SDS_P2;PMS_P1;PMS_P2;Temp;Humidity;BMP_temperature;BMP_pressure;BME280_temperature;BME280_humidity;BME280_pressure;Samples;Min_cycle;Max_cycle;Signal;HPM_P1;HPM_P2
2021/12/23 00:00:06;;;;;;;15.10;4.70;;;;;;;-10.88;75.52;100373.05;102029;1315;25358;-57
2021/12/23 00:02:36;;;;;;;9.20;5.40;;;;;;;-10.89;75.31;100368.03;106145;1316;22413;-59
2021/12/23 00:05:07;;;;;;;13.30;6.10;;;;;;;-10.92;75.84;100366.27;106135;1316;140645;-59
2021/12/23 00:07:36;;;;;;;10.90;5.70;;;;;;;-10.93;76.65;100368.29;106260;1315;23356;-59
2021/12/23 00:10:09;;;;;;;10.50;5.90;;;;;;;-10.93;77.42;100370.02;105425;1322;139255;-59
2021/12/23 00:12:39;;;;;;;17.50;10.20;;;;;;;-10.88;77.87;100372.71;106286;1315;22465;-59
2021/12/23 00:15:16;;;;;;;35.50;21.10;;;;;;;-10.88;77.83;100371.32;106006;1316;22549;-59
2021/12/23 00:25:51;;;;;;;24.80;12.30;;;;;;;-10.81;78.00;100380.98;106241;1316;22385;-61
2021/12/23 00:28:19;;;;;;;55.20;29.10;;;;;;;-10.80;77.91;100383.02;105765;1316;139286;-61
2021/12/23 00:30:47;;;;;;;28.70;13.50;;;;;;;-10.81;77.94;100380.08;105484;1320;22399;-61
2021/12/23 00:33:15;;;;;;;28.70;15.70;;;;;;;-10.82;77.73;100384.02;106306;1316;22281;-60
2021/12/23 00:35:43;;;;;;;27.90;14.80;;;;;;;-10.85;77.85;100382.14;106143;1315;140172;-60
2021/12/23 00:38:18;;;;;;;25.30;16.00;;;;;;;-10.84;77.89;100385.79;106294;1315;22509;-60
2021/12/23 00:40:46;;;;;;;11.80;7.30;;;;;;;-10.85;77.78;100379.34;105771;1316;139404;-60
2021/12/23 00:43:14;;;;;;;12.20;5.90;;;;;;;-10.88;77.43;100385.11;106215;1315;22501;-60
2021/12/23 00:45:42;;;;;;;11.40;6.20;;;;;;;-10.90;77.29;100387.38;106105;1316;140173;-60
2021/12/23 00:48:10;;;;;;;11.80;5.20;;;;;;;-10.93;76.71;100388.96;106231;1315;22461;-60
2021/12/23 00:50:38;;;;;;;8.40;4.70;;;;;;;-10.97;76.61;100388.06;106251;1315;22632;-60
2021/12/23 00:53:08;;;;;;;10.60;6.00;;;;;;;-11.01;76.43;100393.36;106189;1316;140000;-59
2021/12/23 00:55:36;;;;;;;7.90;4.70;;;;;;;-11.04;76.21;100395.14;105438;1316;23217;-59
2021/12/23 00:58:04;;;;;;;8.90;5.30;;;;;;;-11.06;76.50;100390.16;106160;1319;140731;-59
2021/12/23 01:00:32;;;;;;;9.20;5.70;;;;;;;-11.07;76.38;100389.52;106146;1323;23075;-59
2021/12/23 01:03:03;;;;;;;11.30;6.20;;;;;;;-11.04;76.37;100391.50;106279;1316;22671;-59
2021/12/23 01:05:31;;;;;;;21.50;8.90;;;;;;;-11.03;76.38;100391.22;106157;1317;139472;-59
2021/12/23 01:07:59;;;;;;;20.50;8.50;;;;;;;-11.02;76.26;100393.80;106319;1315;22490;-59
2021/12/23 01:10:27;;;;;;;14.70;6.80;;;;;;;-11.01;76.25;100391.64;106173;1315;139877;-59
2021/12/23 01:12:58;;;;;;;10.60;5.30;;;;;;;-11.01;76.03;100394.82;106315;1319;23227;-59
2021/12/23 01:16:00;;;;;;;11.50;5.40;;;;;;;-11.03;75.93;100394.41;106117;1315;138918;-58
2021/12/23 01:18:31;;;;;;;12.10;5.20;;;;;;;-11.04;76.06;100394.48;106263;1316;22383;-59
2021/12/23 01:21:15;;;;;;;11.20;5.70;;;;;;;-11.03;76.11;100395.45;105895;1316;399158;-59
2021/12/23 01:23:49;;;;;;;10.00;5.80;;;;;;;-11.03;76.19;100390.52;106205;1316;140197;-59
2021/12/23 01:26:19;;;;;;;11.40;5.30;;;;;;;-11.02;76.32;100393.47;106248;1316;23272;-58
2021/12/23 01:28:52;;;;;;;10.00;5.30;;;;;;;-11.04;76.03;100393.21;106192;1322;139309;-58
2021/12/23 01:31:24;;;;;;;8.00;5.10;;;;;;;-11.05;75.53;100397.34;106320;1316;22517;-58
2021/12/23 01:33:52;;;;;;;12.80;5.70;;;;;;;-11.10;76.04;100400.06;106125;1313;139125;-59
2021/12/23 01:36:22;;;;;;;9.80;5.00;;;;;;;-11.15;76.71;100397.07;106292;1315;22484;-59
2021/12/23 01:38:50;;;;;;;9.90;5.10;;;;;;;-11.19;77.16;100398.78;106273;1315;22508;-59
2021/12/23 01:41:18;;;;;;;9.40;5.70;;;;;;;-11.25;77.40;100394.41;106187;1315;139021;-59
2021/12/23 01:43:46;;;;;;;7.60;4.60;;;;;;;-11.26;77.74;100400.09;106277;1316;23186;-59
2021/12/23 01:46:14;;;;;;;10.00;5.30;;;;;;;-11.28;78.03;100396.06;104297;1316;138919;-58
2021/12/23 01:48:42;;;;;;;11.60;6.40;;;;;;;-11.30;77.91;100394.23;106244;1319;23245;-58
2021/12/23 01:51:11;;;;;;;11.30;5.70;;;;;;;-11.32;78.40;100398.18;106320;1316;22389;-58
2021/12/23 01:53:39;;;;;;;12.60;5.90;;;;;;;-11.33;77.92;100396.83;106038;1315;139055;-58
2021/12/23 01:56:06;;;;;;;11.80;5.40;;;;;;;-11.34;78.00;100405.31;106278;1319;22426;-58
2021/12/23 01:58:36;;;;;;;9.60;5.80;;;;;;;-11.34;77.73;100407.82;106089;1315;139851;-59
2021/12/23 02:01:12;;;;;;;10.10;5.60;;;;;;;-11.35;78.01;100408.00;106261;1315;23167;-58
2021/12/23 02:03:40;;;;;;;10.90;5.10;;;;;;;-11.35;77.66;100409.77;106165;1315;139566;-58
2021/12/23 02:06:08;;;;;;;13.90;5.90;;;;;;;-11.35;77.66;100405.77;106231;1319;22444;-59
2021/12/23 02:08:39;;;;;;;11.00;5.90;;;;;;;-11.36;77.32;100408.08;106277;1316;22448;-60
2021/12/23 02:11:08;;;;;;;11.30;5.90;;;;;;;-11.38;77.34;100403.34;106167;1316;140959;-60
2021/12/23 02:13:36;;;;;;;13.10;5.10;;;;;;;-11.38;77.29;100405.80;106095;1316;23060;-60
2021/12/23 02:16:06;;;;;;;9.40;5.60;;;;;;;-11.39;76.94;100410.90;106163;1314;139723;-60
2021/12/23 02:18:35;;;;;;;12.90;5.80;;;;;;;-11.42;76.77;100411.48;102875;1316;22575;-60
2021/12/23 02:21:05;;;;;;;8.00;5.10;;;;;;;-11.49;76.49;100411.55;102041;1315;23206;-59
2021/12/23 02:23:41;;;;;;;7.60;4.40;;;;;;;-11.56;76.30;100410.26;101963;1320;139185;-58
2021/12/23 02:26:09;;;;;;;10.80;5.90;;;;;;;-11.62;76.48;100408.89;102054;1315;23095;-60
2021/12/23 02:28:37;;;;;;;9.60;4.60;;;;;;;-11.68;76.36;100412.42;106057;1315;139025;-60
2021/12/23 02:31:05;;;;;;;11.40;6.00;;;;;;;-11.73;76.37;100412.76;106254;1315;22358;-60
2021/12/23 02:33:34;;;;;;;13.40;6.50;;;;;;;-11.78;76.40;100409.89;106180;1316;140118;-60
2021/12/23 02:36:02;;;;;;;12.60;6.00;;;;;;;-11.81;76.32;100407.44;106281;1316;22456;-60
2021/12/23 02:38:30;;;;;;;9.10;6.20;;;;;;;-11.84;76.36;100408.66;106260;1316;22482;-59
2021/12/23 02:40:58;;;;;;;10.90;6.00;;;;;;;-11.84;76.41;100407.84;106146;1315;138801;-60
2021/12/23 02:43:29;;;;;;;12.70;6.30;;;;;;;-11.88;76.41;100407.02;106028;1315;22986;-59
2021/12/23 02:45:59;;;;;;;9.40;5.90;;;;;;;-11.89;76.63;100407.96;106197;1315;139486;-59
2021/12/23 02:48:31;;;;;;;11.20;5.80;;;;;;;-11.89;76.82;100411.10;106281;1315;22485;-60
2021/12/23 02:51:02;;;;;;;8.70;5.70;;;;;;;-11.91;76.66;100409.27;106226;1315;22432;-59
2021/12/23 02:53:30;;;;;;;14.60;5.40;;;;;;;-11.90;76.68;100406.11;106029;1318;140631;-59
2021/12/23 02:55:59;;;;;;;12.90;6.70;;;;;;;-11.91;76.56;100401.27;106222;1315;23572;-59
2021/12/23 02:58:27;;;;;;;10.10;6.40;;;;;;;-11.94;76.45;100402.63;106207;1319;139037;-59
2021/12/23 03:00:56;;;;;;;13.20;6.60;;;;;;;-11.93;76.45;100405.42;105210;1323;23559;-59
2021/12/23 03:03:25;;;;;;;11.60;6.10;;;;;;;-11.92;76.64;100404.30;106291;1316;22476;-59
2021/12/23 03:05:55;;;;;;;10.70;6.40;;;;;;;-11.91;76.82;100402.80;106133;1315;139774;-59
2021/12/23 03:08:56;;;;;;;11.70;6.40;;;;;;;-11.90;76.82;100405.19;105849;1316;24879;-59
2021/12/23 03:11:25;;;;;;;10.50;6.40;;;;;;;-11.83;76.80;100410.76;105093;1326;140808;-60
2021/12/23 03:13:53;;;;;;;10.70;7.50;;;;;;;-11.77;76.81;100412.45;105279;1324;22650;-60
2021/12/23 03:16:23;;;;;;;10.40;6.40;;;;;;;-11.72;76.84;100413.00;103133;1324;139106;-55
2021/12/23 03:19:11;;;;;;;15.60;7.70;;;;;;;-11.66;76.86;100415.23;101173;1330;25620;-57
2021/12/23 03:21:39;;;;;;;18.40;8.80;;;;;;;-11.64;76.81;100412.46;101164;1324;140468;-56
2021/12/23 03:24:07;;;;;;;18.40;8.20;;;;;;;-11.62;76.72;100408.88;101149;1328;25220;-55
2021/12/23 03:26:35;;;;;;;13.60;7.50;;;;;;;-11.62;77.03;100406.08;101048;1324;25966;-55
2021/12/23 03:29:04;;;;;;;10.90;6.20;;;;;;;-11.58;77.05;100408.10;100964;1324;143237;-56
2021/12/23 03:31:32;;;;;;;13.20;5.80;;;;;;;-11.58;77.08;100404.76;101217;1324;24317;-57
2021/12/23 03:34:00;;;;;;;16.00;6.40;;;;;;;-11.57;77.00;100404.20;101042;1328;140276;-57
2021/12/23 03:36:28;;;;;;;12.20;6.80;;;;;;;-11.59;76.97;100403.96;101077;1324;22609;-59
2021/12/23 03:38:56;;;;;;;13.70;7.60;;;;;;;-11.60;76.93;100407.52;101146;1324;25752;-56
2021/12/23 03:41:24;;;;;;;10.90;6.50;;;;;;;-11.60;76.90;100405.94;105142;1329;140318;-57
2021/12/23 03:43:52;;;;;;;13.80;7.00;;;;;;;-11.59;76.89;100409.02;105336;1324;22325;-57
2021/12/23 03:46:20;;;;;;;19.30;9.80;;;;;;;-11.63;76.60;100411.40;103201;1324;139922;-58
2021/12/23 03:48:49;;;;;;;24.00;9.90;;;;;;;-11.68;76.34;100410.66;102159;1316;22673;-58
2021/12/23 03:51:17;;;;;;;21.90;8.30;;;;;;;-11.70;76.35;100411.49;102021;1316;22598;-59
2021/12/23 03:53:48;;;;;;;15.70;8.30;;;;;;;-11.70;76.71;100412.72;101927;1320;140340;-58
2021/12/23 03:56:18;;;;;;;19.30;8.40;;;;;;;-11.69;76.90;100414.77;106168;1316;23418;-60
2021/12/23 03:58:46;;;;;;;23.40;10.50;;;;;;;-11.65;76.85;100415.91;106119;1316;138606;-60
2021/12/23 04:01:14;;;;;;;24.30;10.70;;;;;;;-11.61;77.00;100414.95;106125;1317;23333;-60
2021/12/23 04:03:42;;;;;;;20.60;8.70;;;;;;;-11.56;77.10;100418.86;106157;1315;140754;-59
2021/12/23 04:06:26;;;;;;;20.80;11.00;;;;;;;-11.52;77.24;100415.95;106184;1320;22453;-60
2021/12/23 04:08:55;;;;;;;18.10;8.80;;;;;;;-11.49;77.25;100418.88;106248;1320;22639;-60
2021/12/23 04:11:23;;;;;;;18.90;9.00;;;;;;;-11.46;77.19;100422.57;106212;1316;138723;-60
2021/12/23 04:13:53;;;;;;;16.70;8.60;;;;;;;-11.44;77.00;100425.60;105921;1315;22416;-60
2021/12/23 04:16:21;;;;;;;15.60;9.60;;;;;;;-11.38;77.16;100429.66;106179;1322;139590;-57
2021/12/23 04:18:51;;;;;;;14.40;8.20;;;;;;;-11.36;76.81;100432.08;106246;1316;23121;-57
2021/12/23 04:21:18;;;;;;;20.90;11.40;;;;;;;-11.34;77.00;100436.88;106279;1316;23382;-57
2021/12/23 04:23:46;;;;;;;21.70;11.50;;;;;;;-11.32;77.05;100442.02;106160;1315;138820;-57
2021/12/23 04:26:14;;;;;;;22.90;11.60;;;;;;;-11.30;77.04;100439.48;106231;1319;22412;-57
2021/12/23 04:28:46;;;;;;;18.20;10.20;;;;;;;-11.28;76.71;100438.64;106166;1316;139985;-58
2021/12/23 04:31:17;;;;;;;17.50;8.80;;;;;;;-11.30;76.96;100436.27;106291;1316;22497;-57
2021/12/23 04:33:48;;;;;;;15.80;8.00;;;;;;;-11.28;76.99;100438.96;106195;1320;139535;-57
2021/12/23 04:36:16;;;;;;;34.30;13.20;;;;;;;-11.28;76.79;100443.67;106250;1315;23295;-57
2021/12/23 04:38:45;;;;;;;32.60;15.50;;;;;;;-11.28;76.72;100435.83;106294;1321;22401;-57
2021/12/23 04:41:13;;;;;;;30.70;12.80;;;;;;;-11.29;76.67;100440.42;106153;1315;138940;-57
2021/12/23 04:43:41;;;;;;;24.80;13.30;;;;;;;-11.30;76.70;100438.04;106265;1315;22648;-56
2021/12/23 04:46:10;;;;;;;22.20;11.60;;;;;;;-11.28;76.67;100438.44;106067;1316;139346;-60
2021/12/23 04:48:39;;;;;;;16.60;10.00;;;;;;;-11.28;76.66;100441.96;106204;1315;22572;-60
2021/12/23 04:51:07;;;;;;;13.10;7.40;;;;;;;-11.29;76.57;100436.59;106220;1315;22278;-60
2021/12/23 04:53:34;;;;;;;17.90;9.10;;;;;;;-11.32;76.24;100437.80;106239;1316;138940;-60
2021/12/23 04:56:03;;;;;;;16.90;8.80;;;;;;;-11.34;76.29;100437.08;105796;1316;22527;-60
2021/12/23 04:58:31;;;;;;;14.60;7.50;;;;;;;-11.36;76.12;100437.19;106185;1315;139479;-60
2021/12/23 05:00:59;;;;;;;12.60;6.80;;;;;;;-11.40;75.89;100437.63;106299;1315;23216;-60
2021/12/23 05:03:27;;;;;;;13.90;7.50;;;;;;;-11.47;75.86;100436.83;106177;1318;22466;-60
2021/12/23 05:05:55;;;;;;;15.40;8.30;;;;;;;-11.51;75.87;100436.23;106047;1316;140277;-59
2021/12/23 05:08:25;;;;;;;17.30;9.00;;;;;;;-11.54;75.87;100437.80;106084;1319;22530;-60
2021/12/23 05:10:53;;;;;;;18.50;9.70;;;;;;;-11.56;76.03;100437.58;106022;1318;138936;-61
2021/12/23 05:13:21;;;;;;;16.60;8.80;;;;;;;-11.55;76.10;100441.23;106165;1317;22440;-61
2021/12/23 05:15:50;;;;;;;18.30;10.00;;;;;;;-11.53;76.10;100442.48;106081;1318;139183;-60
2021/12/23 05:18:18;;;;;;;17.00;9.10;;;;;;;-11.51;76.00;100445.33;106125;1322;22388;-60
2021/12/23 05:20:48;;;;;;;21.80;9.70;;;;;;;-11.51;76.00;100443.94;106150;1317;22555;-60
2021/12/23 05:24:55;;;;;;;19.90;8.90;;;;;;;-11.51;75.71;100445.33;99340;1355;545445;-59
2021/12/23 05:27:23;;;;;;;20.50;9.20;;;;;;;-11.57;75.59;100448.15;101247;1326;23217;-57
2021/12/23 05:29:51;;;;;;;27.80;11.90;;;;;;;-11.63;75.65;100447.34;104835;1330;138118;-60
2021/12/23 05:32:19;;;;;;;34.30;15.90;;;;;;;-11.75;75.61;100450.85;104940;1333;23580;-59
2021/12/23 05:34:47;;;;;;;48.50;18.80;;;;;;;-11.85;75.64;100450.27;104700;1333;139185;-59
2021/12/23 05:37:15;;;;;;;50.50;20.60;;;;;;;-11.92;75.74;100448.42;104992;1333;22484;-59
2021/12/23 05:39:46;;;;;;;52.20;22.30;;;;;;;-11.94;75.96;100450.65;104978;1328;139254;-59
2021/12/23 05:42:14;;;;;;;64.80;24.00;;;;;;;-11.94;75.93;100450.80;105216;1328;22533;-59
2021/12/23 05:44:42;;;;;;;64.00;25.80;;;;;;;-11.95;76.16;100451.08;105159;1328;22263;-59
2021/12/23 05:47:10;;;;;;;42.60;20.70;;;;;;;-11.95;76.24;100456.48;105062;1331;139692;-60
2021/12/23 05:49:38;;;;;;;39.90;19.80;;;;;;;-11.93;76.21;100458.33;105188;1331;22401;-59
2021/12/23 05:52:06;;;;;;;44.30;21.20;;;;;;;-11.91;76.22;100461.86;105110;1329;138830;-60
2021/12/23 05:54:34;;;;;;;50.10;24.40;;;;;;;-11.89;76.53;100463.31;104886;1333;22531;-59
2021/12/23 05:57:02;;;;;;;39.40;20.70;;;;;;;-11.86;76.19;100464.16;105198;1331;22401;-60
2021/12/23 05:59:32;;;;;;;30.70;15.40;;;;;;;-11.84;76.29;100466.17;105014;1331;139042;-59
2021/12/23 06:02:00;;;;;;;27.50;14.20;;;;;;;-11.84;76.19;100466.83;105168;1328;22473;-59
2021/12/23 06:04:28;;;;;;;31.90;14.50;;;;;;;-11.84;75.88;100463.88;105093;1328;140061;-59
2021/12/23 06:06:56;;;;;;;25.50;12.90;;;;;;;-11.88;75.59;100465.52;105168;1331;23592;-58
2021/12/23 06:09:24;;;;;;;28.50;14.00;;;;;;;-11.93;75.38;100469.16;105904;1323;23689;-58
2021/12/23 06:11:51;;;;;;;42.70;18.70;;;;;;;-11.96;75.35;100469.02;105714;1322;138764;-58
2021/12/23 06:14:21;;;;;;;65.10;25.70;;;;;;;-12.01;75.08;100471.77;105921;1323;23216;-58
2021/12/23 06:16:49;;;;;;;95.90;34.90;;;;;;;-12.07;74.97;100471.06;105853;1323;138707;-58
2021/12/23 06:19:34;;;;;;;79.10;28.60;;;;;;;-12.12;75.06;100470.67;105960;1323;23054;-58
2021/12/23 06:22:02;;;;;;;77.40;30.10;;;;;;;-12.18;75.05;100470.64;105846;1323;139030;-59
2021/12/23 06:24:31;;;;;;;78.70;26.00;;;;;;;-12.25;74.90;100472.98;105868;1324;22516;-60
2021/12/23 06:26:59;;;;;;;78.10;28.90;;;;;;;-12.31;74.78;100474.27;105884;1323;22396;-60
2021/12/23 06:29:27;;;;;;;84.50;35.50;;;;;;;-12.35;74.88;100472.34;105737;1324;138461;-60
2021/12/23 06:31:55;;;;;;;101.00;40.80;;;;;;;-12.36;74.73;100470.82;105831;1322;22316;-60
2021/12/23 06:34:24;;;;;;;66.20;29.30;;;;;;;-12.37;74.88;100470.55;105591;1327;139021;-60
2021/12/23 06:36:52;;;;;;;55.30;23.30;;;;;;;-12.39;75.13;100467.69;105829;1328;23275;-60
2021/12/23 06:39:19;;;;;;;44.40;17.70;;;;;;;-12.36;75.56;100465.45;105854;1321;22472;-59
2021/12/23 06:41:48;;;;;;;31.10;13.60;;;;;;;-12.34;75.50;100464.95;105845;1324;140231;-59
2021/12/23 06:44:16;;;;;;;28.70;14.60;;;;;;;-12.34;75.77;100463.02;105858;1322;22581;-59
2021/12/23 06:46:44;;;;;;;29.40;12.50;;;;;;;-12.34;75.82;100466.02;102528;1324;140560;-58
2021/12/23 06:49:16;;;;;;;24.20;11.90;;;;;;;-12.34;76.03;100462.50;101347;1328;22562;-60
2021/12/23 06:51:44;;;;;;;34.10;14.40;;;;;;;-12.33;76.08;100464.59;101359;1324;139433;-59
2021/12/23 06:54:14;;;;;;;30.80;14.40;;;;;;;-12.33;76.13;100467.02;105671;1321;23575;-60
2021/12/23 06:56:41;;;;;;;31.90;15.30;;;;;;;-12.34;76.23;100466.70;105744;1322;22577;-59
2021/12/23 06:59:14;;;;;;;32.10;14.10;;;;;;;-12.32;76.16;100463.83;105570;1321;138731;-59
2021/12/23 07:01:42;;;;;;;28.50;13.70;;;;;;;-12.31;76.30;100467.61;105746;1322;22495;-59
2021/12/23 07:04:15;;;;;;;33.10;14.50;;;;;;;-12.29;76.52;100470.44;105672;1321;140542;-60
2021/12/23 07:06:52;;;;;;;66.10;26.60;;;;;;;-12.24;76.59;100470.85;105767;1322;22425;-60
2021/12/23 07:09:20;;;;;;;89.90;30.00;;;;;;;-12.18;77.12;100473.96;105743;1321;22495;-60
2021/12/23 07:11:48;;;;;;;92.10;31.50;;;;;;;-12.07;77.08;100473.50;105431;1327;138837;-60
2021/12/23 07:14:15;;;;;;;86.10;29.30;;;;;;;-12.00;77.26;100468.34;105813;1325;22448;-60
2021/12/23 07:16:43;;;;;;;101.50;33.30;;;;;;;-11.95;77.24;100460.86;105749;1322;138764;-60
2021/12/23 07:19:12;;;;;;;81.10;30.70;;;;;;;-11.86;77.46;100458.71;105615;1327;23191;-59
2021/12/23 07:21:40;;;;;;;67.70;23.40;;;;;;;-11.75;77.63;100459.80;105763;1322;139312;-60
2021/12/23 07:24:08;;;;;;;96.30;32.00;;;;;;;-11.66;77.83;100460.44;105931;1318;22524;-60
2021/12/23 07:26:37;;;;;;;54.30;19.30;;;;;;;-11.58;77.46;100462.61;106092;1323;22411;-60
2021/12/23 07:29:04;;;;;;;54.40;19.80;;;;;;;-11.51;77.87;100462.66;105946;1325;138731;-60
2021/12/23 07:31:33;;;;;;;31.90;13.90;;;;;;;-11.45;77.68;100463.71;106165;1324;22380;-61
2021/12/23 07:34:01;;;;;;;28.90;13.50;;;;;;;-11.40;77.78;100466.20;106024;1324;139448;-60
2021/12/23 07:36:29;;;;;;;40.40;16.80;;;;;;;-11.36;77.31;100468.39;106085;1319;23117;-59
2021/12/23 07:38:57;;;;;;;33.50;15.40;;;;;;;-11.33;77.25;100469.82;106114;1320;22625;-59
2021/12/23 07:41:27;;;;;;;37.50;16.30;;;;;;;-11.31;77.20;100470.93;105896;1319;139161;-59
2021/12/23 07:43:58;;;;;;;35.20;14.70;;;;;;;-11.28;77.45;100466.86;106142;1325;22497;-59
2021/12/23 07:46:27;;;;;;;19.20;9.90;;;;;;;-11.24;77.48;100458.67;103792;1324;140844;-58
2021/12/23 07:48:55;;;;;;;16.50;8.60;;;;;;;-11.18;77.46;100454.98;106113;1319;22472;-59
2021/12/23 07:51:23;;;;;;;24.70;10.30;;;;;;;-11.13;77.60;100455.17;106067;1319;22426;-59
2021/12/23 07:53:53;;;;;;;20.20;10.20;;;;;;;-11.05;77.31;100460.61;105803;1325;138797;-59
2021/12/23 07:56:22;;;;;;;19.30;9.20;;;;;;;-10.98;77.19;100461.96;106093;1319;22548;-59
2021/12/23 07:58:51;;;;;;;14.30;7.60;;;;;;;-10.94;77.23;100461.31;106009;1324;138326;-59
2021/12/23 08:01:18;;;;;;;15.00;8.20;;;;;;;-10.90;77.19;100459.14;106129;1320;22501;-59
2021/12/23 08:03:47;;;;;;;15.50;7.90;;;;;;;-10.89;76.69;100459.40;105987;1319;138502;-59
2021/12/23 08:06:14;;;;;;;22.80;11.80;;;;;;;-10.86;76.85;100457.16;105220;1319;22577;-59
2021/12/23 08:08:42;;;;;;;22.20;13.70;;;;;;;-10.86;76.50;100457.45;106120;1323;22892;-58
2021/12/23 08:11:10;;;;;;;17.80;9.90;;;;;;;-10.83;76.51;100454.60;105994;1323;139294;-59
2021/12/23 08:13:38;;;;;;;17.70;9.30;;;;;;;-10.79;76.21;100458.77;106097;1319;22549;-59
2021/12/23 08:16:10;;;;;;;14.50;7.20;;;;;;;-10.78;76.04;100456.21;105984;1319;138954;-59
2021/12/23 08:18:38;;;;;;;11.20;6.50;;;;;;;-10.79;75.59;100456.27;106146;1325;23208;-60
2021/12/23 08:21:06;;;;;;;14.30;7.10;;;;;;;-10.80;75.51;100450.94;106134;1319;22384;-61
2021/12/23 08:23:34;;;;;;;15.10;9.30;;;;;;;-10.81;75.41;100447.81;105840;1319;138982;-61
2021/12/23 08:26:10;;;;;;;16.50;9.40;;;;;;;-10.81;75.24;100447.31;106139;1325;22496;-66
2021/12/23 08:28:38;;;;;;;21.30;11.50;;;;;;;-10.83;75.27;100442.34;105811;1327;138798;-65
2021/12/23 08:31:05;;;;;;;18.10;10.30;;;;;;;-10.82;75.16;100438.30;106119;1325;22370;-66
2021/12/23 08:33:34;;;;;;;22.00;11.40;;;;;;;-10.83;75.27;100434.45;105958;1324;139180;-65
2021/12/23 08:36:02;;;;;;;22.60;13.60;;;;;;;-10.81;75.13;100433.95;106157;1322;22404;-66
2021/12/23 08:38:30;;;;;;;27.10;14.20;;;;;;;-10.78;75.05;100428.87;106105;1319;22481;-66
2021/12/23 08:40:58;;;;;;;21.10;11.30;;;;;;;-10.80;74.77;100425.63;106003;1325;139824;-66
2021/12/23 08:43:26;;;;;;;18.60;10.10;;;;;;;-10.84;74.92;100419.63;106162;1325;22400;-65
2021/12/23 08:45:54;;;;;;;17.20;9.70;;;;;;;-10.84;74.61;100423.52;106029;1323;139022;-65
2021/12/23 08:48:22;;;;;;;21.50;10.90;;;;;;;-10.88;74.82;100420.23;106113;1324;23228;-64
2021/12/23 08:50:50;;;;;;;19.50;10.90;;;;;;;-10.88;74.77;100418.52;106124;1319;23356;-65
2021/12/23 08:53:19;;;;;;;22.30;12.60;;;;;;;-10.88;74.87;100413.23;105982;1319;138843;-65
2021/12/23 08:55:47;;;;;;;19.60;10.50;;;;;;;-10.84;74.87;100411.75;106130;1319;23461;-66
2021/12/23 08:58:15;;;;;;;15.50;9.70;;;;;;;-10.79;74.82;100408.05;105720;1322;139371;-65
2021/12/23 09:00:43;;;;;;;18.40;8.90;;;;;;;-10.72;75.07;100403.05;105898;1325;23164;-65
2021/12/23 09:03:11;;;;;;;21.50;10.00;;;;;;;-10.65;75.00;100399.92;105982;1320;23175;-65
2021/12/23 09:05:40;;;;;;;25.30;11.50;;;;;;;-10.59;74.76;100400.77;105393;1319;138948;-65
2021/12/23 09:08:09;;;;;;;20.30;10.30;;;;;;;-10.53;74.82;100392.98;106064;1319;24118;-65
2021/12/23 09:10:39;;;;;;;19.30;10.40;;;;;;;-10.49;74.66;100389.72;106035;1320;143421;-65
2021/12/23 09:13:06;;;;;;;26.60;12.40;;;;;;;-10.45;74.48;100387.54;106122;1324;22550;-65
2021/12/23 09:15:34;;;;;;;29.30;14.10;;;;;;;-10.41;74.28;100387.79;105968;1319;139048;-64
2021/12/23 09:18:03;;;;;;;22.60;13.30;;;;;;;-10.39;74.37;100384.98;106152;1325;22239;-65
2021/12/23 09:20:31;;;;;;;25.40;12.90;;;;;;;-10.35;74.32;100378.40;106092;1319;22455;-63
2021/12/23 09:22:59;;;;;;;27.30;14.50;;;;;;;-10.31;74.38;100375.83;106015;1318;139399;-60
2021/12/23 09:25:32;;;;;;;27.70;13.00;;;;;;;-10.25;74.32;100374.94;105626;1318;23003;-64
2021/12/23 09:33:40;;;;;;;20.20;10.60;;;;;;;-10.08;74.01;100363.15;101999;1316;139262;-64
2021/12/23 09:36:08;;;;;;;20.00;9.20;;;;;;;-10.02;74.05;100359.40;102107;1316;22571;-64
2021/12/23 09:38:36;;;;;;;16.30;9.10;;;;;;;-9.97;73.89;100356.43;106285;1316;23214;-65
2021/12/23 09:41:16;;;;;;;14.90;7.80;;;;;;;-9.94;73.63;100351.66;106160;1320;139130;-65
2021/12/23 09:43:44;;;;;;;14.90;7.80;;;;;;;-9.92;73.48;100346.73;106298;1315;23318;-65
2021/12/23 09:46:15;;;;;;;15.60;8.10;;;;;;;-9.87;73.41;100349.95;106206;1316;138839;-65
2021/12/23 09:48:43;;;;;;;22.10;9.10;;;;;;;-9.83;73.36;100348.76;106299;1315;22413;-65
2021/12/23 09:51:13;;;;;;;16.40;8.30;;;;;;;-9.80;73.16;100343.61;106326;1316;22390;-65
2021/12/23 09:53:42;;;;;;;17.40;9.30;;;;;;;-9.75;73.11;100339.91;106250;1316;142044;-65
2021/12/23 09:56:10;;;;;;;17.10;8.80;;;;;;;-9.71;73.20;100333.27;106330;1316;22472;-65
2021/12/23 09:58:38;;;;;;;16.40;8.80;;;;;;;-9.65;73.16;100329.30;106127;1315;140217;-64
2021/12/23 10:01:06;;;;;;;15.20;8.50;;;;;;;-9.57;73.24;100325.63;106269;1316;22421;-64
2021/12/23 10:03:34;;;;;;;18.00;9.30;;;;;;;-9.50;73.18;100320.20;106133;1316;139570;-64
2021/12/23 10:06:02;;;;;;;21.40;10.60;;;;;;;-9.44;72.96;100318.30;106172;1321;23272;-64
2021/12/23 10:08:30;;;;;;;22.80;10.70;;;;;;;-9.39;72.70;100311.81;106267;1316;22476;-64
2021/12/23 10:11:07;;;;;;;19.80;9.70;;;;;;;-9.39;72.72;100309.54;106139;1317;139300;-64
2021/12/23 10:31:07;;;;;;;17.90;9.80;;;;;;;-9.00;72.16;100291.82;106194;1317;23146;-65
2021/12/23 10:37:05;;;;;;;14.10;7.90;;;;;;;-8.94;72.11;100288.74;105970;1319;140370;-65
2021/12/23 10:39:26;;;;;;;16.60;8.60;;;;;;;-8.82;71.99;100282.90;106105;1318;22482;-65
2021/12/23 10:42:08;;;;;;;17.00;9.00;;;;;;;-8.78;71.70;100277.48;106100;1315;139406;-65
2021/12/23 10:44:36;;;;;;;16.00;8.80;;;;;;;-8.75;71.77;100276.90;106290;1315;22470;-65
2021/12/23 10:47:06;;;;;;;16.80;8.70;;;;;;;-8.71;71.57;100279.27;106004;1318;139458;-67
2021/12/23 10:49:51;;;;;;;14.30;8.80;;;;;;;-8.68;71.63;100275.34;106210;1316;22468;-67
2021/12/23 10:52:26;;;;;;;17.10;9.40;;;;;;;-8.64;71.40;100273.27;106167;1315;139457;-67
2021/12/23 11:00:28;;;;;;;12.30;7.60;;;;;;;-8.54;71.24;100255.77;106269;1316;22555;-64
2021/12/23 11:02:59;;;;;;;18.40;11.00;;;;;;;-8.50;71.17;100251.41;106229;1316;23170;-64
2021/12/23 11:05:32;;;;;;;19.00;9.70;;;;;;;-8.45;71.21;100246.04;106111;1315;139341;-64
2021/12/23 11:41:51;;;;;;;18.60;11.00;;;;;;;-8.24;70.39;100221.77;106044;1316;138991;-66
2021/12/23 11:43:58;;;;;;;19.80;10.80;;;;;;;-8.23;70.38;100220.01;106078;1316;22428;-66
2021/12/23 11:46:50;;;;;;;19.40;11.20;;;;;;;-8.24;70.12;100217.80;106140;1315;140072;-65
2021/12/23 11:49:18;;;;;;;20.50;11.10;;;;;;;-8.26;70.29;100217.75;106305;1315;22492;-66
2021/12/23 11:54:38;;;;;;;20.80;12.80;;;;;;;-8.26;70.37;100220.41;106206;1317;139742;-66
2021/12/23 11:57:09;;;;;;;21.60;11.10;;;;;;;-8.28;70.27;100222.27;106316;1315;22555;-61
2021/12/23 11:59:39;;;;;;;20.50;11.80;;;;;;;-8.28;70.31;100223.94;106106;1316;139040;-62
2021/12/23 12:02:18;;;;;;;26.70;13.30;;;;;;;-8.28;70.45;100222.31;106091;1321;22454;-62
2021/12/23 12:04:47;;;;;;;22.80;11.80;;;;;;;-8.30;70.21;100216.10;106113;1316;140085;-61
2021/12/23 12:07:17;;;;;;;20.40;11.70;;;;;;;-8.32;70.06;100219.48;106294;1316;22522;-61
2021/12/23 12:10:04;;;;;;;21.40;11.60;;;;;;;-8.37;69.87;100217.77;106377;1315;22455;-61
2021/12/23 12:12:34;;;;;;;28.60;12.20;;;;;;;-8.39;69.82;100221.50;106123;1315;138747;-61
2021/12/23 12:15:03;;;;;;;26.00;13.00;;;;;;;-8.45;69.80;100223.48;106221;1315;22667;-61
2021/12/23 12:17:35;;;;;;;28.10;13.00;;;;;;;-8.55;69.55;100221.80;105826;1316;139415;-61
2021/12/23 12:20:37;;;;;;;31.80;13.90;;;;;;;-8.64;69.69;100221.29;106201;1315;23103;-61
2021/12/23 12:23:14;;;;;;;25.70;12.80;;;;;;;-8.70;70.02;100224.42;106049;1318;139042;-61
2021/12/23 12:25:43;;;;;;;36.60;16.40;;;;;;;-8.71;70.34;100223.27;106174;1316;22468;-65